METAR Data
IDs: Format: Raw Decoded Include TAF

Data at: 1018 UTC 28 Sep 2021

EYVI 280950Z 09007KT 060V140 9999 SCT020 BKN055 12/07 Q1028 NOSIG